Time;durP1;ratioP1;P1;durP2;ratioP2;P2;SDS_P1;SDS_P2;PMS_P1;PMS_P2;Temp;Humidity;BMP_temperature;BMP_pressure;BME280_temperature;BME280_humidity;BME280_pressure;Samples;Min_cycle;Max_cycle;Signal;HPM_P1;HPM_P2
2021/07/30 00:02:19;;;;;;;;;6.50;6.00;;;;;21.21;43.85;100642.59;5082666;28;45226;-53
2021/07/30 00:04:44;;;;;;;;;7.00;7.00;;;;;21.18;43.56;100644.59;5082381;28;45273;-52
2021/07/30 00:07:10;;;;;;;;;6.25;5.00;;;;;21.18;43.79;100647.28;5082590;28;45412;-51
2021/07/30 00:09:35;;;;;;;;;8.00;5.50;;;;;21.16;43.88;100633.16;5081766;28;45327;-53
2021/07/30 00:12:00;;;;;;;;;6.00;6.00;;;;;21.14;43.86;100638.56;5082414;28;45280;-52
2021/07/30 00:14:26;;;;;;;;;7.00;6.25;;;;;21.14;43.90;100641.25;5082117;28;45294;-52
2021/07/30 00:16:51;;;;;;;;;6.25;6.25;;;;;21.11;44.23;100634.28;5082653;28;45354;-52
2021/07/30 00:19:16;;;;;;;;;6.75;6.00;;;;;21.08;44.09;100633.59;5082079;28;45508;-52
2021/07/30 00:21:42;;;;;;;;;6.00;6.00;;;;;21.07;44.32;100638.09;5082098;27;45342;-50
2021/07/30 00:24:07;;;;;;;;;5.75;5.75;;;;;21.07;44.15;100639.91;5082331;28;45338;-53
2021/07/30 00:26:32;;;;;;;;;10.00;7.25;;;;;21.05;43.71;100636.47;5082447;28;45326;-53
2021/07/30 00:28:58;;;;;;;;;9.00;6.00;;;;;21.02;44.36;100634.84;5081640;28;50679;-52
2021/07/30 00:31:23;;;;;;;;;8.75;8.00;;;;;21.01;44.34;100630.44;5081868;27;46548;-52
2021/07/30 00:33:48;;;;;;;;;7.75;7.75;;;;;20.99;43.86;100626.16;5082045;28;45217;-52
2021/07/30 00:36:14;;;;;;;;;8.00;8.00;;;;;20.97;44.14;100626.25;5082038;27;45244;-52
2021/07/30 00:38:40;;;;;;;;;8.00;8.00;;;;;20.94;44.54;100619.28;5082039;28;45390;-52
2021/07/30 00:41:05;;;;;;;;;7.75;7.00;;;;;20.92;44.34;100617.66;5081738;28;45514;-53
2021/07/30 00:43:31;;;;;;;;;8.75;7.00;;;;;20.90;44.00;100616.88;5081580;28;45426;-53
2021/07/30 00:45:58;;;;;;;;;7.75;5.00;;;;;20.86;44.39;100610.84;5081986;28;45484;-52
2021/07/30 00:48:24;;;;;;;;;9.50;8.00;;;;;20.83;44.81;100607.50;5081737;28;45488;-51
2021/07/30 00:50:50;;;;;;;;;10.75;8.75;;;;;20.82;44.75;100608.44;5080273;27;47269;-51
2021/07/30 00:53:17;;;;;;;;;6.50;6.50;;;;;20.81;44.37;100604.94;5081707;28;45256;-53
2021/07/30 00:55:43;;;;;;;;;9.00;9.00;;;;;20.77;44.62;100614.91;5081936;28;45252;-50
2021/07/30 00:58:10;;;;;;;;;9.50;8.50;;;;;20.76;44.72;100612.34;5079906;28;45372;-53
2021/07/30 01:00:35;;;;;;;;;9.25;8.00;;;;;20.74;44.56;100611.56;5081463;27;45217;-53
2021/07/30 01:03:00;;;;;;;;;10.25;9.75;;;;;20.73;44.38;100601.88;5081361;28;45283;-52
2021/07/30 01:05:30;;;;;;;;;13.75;9.00;;;;;20.71;44.66;100604.59;5081780;28;45864;-52
2021/07/30 01:07:56;;;;;;;;;8.50;7.25;;;;;20.69;44.49;100598.47;5080214;28;46163;-50
2021/07/30 01:10:22;;;;;;;;;10.25;8.75;;;;;20.66;44.96;100598.66;5080076;28;46621;-53
2021/07/30 01:12:47;;;;;;;;;7.00;7.00;;;;;20.66;45.17;100600.47;5079829;28;45722;-53
2021/07/30 01:15:13;;;;;;;;;8.00;8.00;;;;;20.63;45.09;100599.69;5081408;28;45280;-49
2021/07/30 01:17:38;;;;;;;;;7.75;7.50;;;;;20.60;45.08;100589.22;5079926;28;45174;-50
2021/07/30 01:20:05;;;;;;;;;6.00;5.50;;;;;20.59;44.79;100595.50;5081014;28;46091;-48
2021/07/30 01:22:34;;;;;;;;;11.00;9.75;;;;;20.57;44.73;100593.84;5080014;28;45589;-51
2021/07/30 01:25:00;;;;;;;;;9.00;8.75;;;;;20.56;44.79;100601.00;5081325;28;45335;-52
2021/07/30 01:27:25;;;;;;;;;7.00;6.00;;;;;20.54;45.30;100594.03;5080892;28;45415;-53
2021/07/30 01:29:51;;;;;;;;;8.75;7.25;;;;;20.51;44.93;100587.06;5080896;28;46618;-53
2021/07/30 01:32:17;;;;;;;;;9.25;7.50;;;;;20.50;45.26;100587.16;5080932;28;45472;-50
2021/07/30 01:34:42;;;;;;;;;8.50;6.75;;;;;20.49;45.27;100580.09;5081276;28;45418;-51
2021/07/30 01:37:09;;;;;;;;;5.50;4.00;;;;;20.47;45.11;100577.50;5080839;28;45465;-51
2021/07/30 01:39:35;;;;;;;;;11.00;8.00;;;;;20.46;45.10;100582.00;5081078;28;46979;-52
2021/07/30 01:42:00;;;;;;;;;7.00;6.00;;;;;20.44;45.55;100578.56;5080419;28;45219;-52
2021/07/30 01:44:26;;;;;;;;;8.50;6.75;;;;;20.43;45.62;100576.84;5081120;28;45407;-53
2021/07/30 01:46:51;;;;;;;;;6.00;6.00;;;;;20.40;45.73;100577.03;5080894;28;45350;-50
2021/07/30 01:49:16;;;;;;;;;9.00;5.75;;;;;20.38;45.70;100576.25;5080913;28;45227;-53
2021/07/30 01:51:42;;;;;;;;;6.50;6.00;;;;;20.36;45.34;100575.47;5080745;28;45194;-52
2021/07/30 01:54:07;;;;;;;;;4.25;4.25;;;;;20.34;45.91;100572.03;5081167;28;45395;-52
2021/07/30 01:56:33;;;;;;;;;6.25;5.75;;;;;20.30;45.61;100570.47;5080693;28;45367;-53
2021/07/30 01:58:58;;;;;;;;;7.25;6.25;;;;;20.27;45.58;100576.00;5080519;28;46285;-49
2021/07/30 02:01:23;;;;;;;;;10.50;7.50;;;;;20.25;45.69;100575.22;5080375;27;45307;-52
2021/07/30 02:03:49;;;;;;;;;8.50;7.25;;;;;20.22;46.03;100572.75;5080803;28;45300;-53
2021/07/30 02:06:14;;;;;;;;;9.00;6.50;;;;;20.21;46.17;100571.88;5080606;28;45330;-53
2021/07/30 02:08:40;;;;;;;;;6.75;6.75;;;;;20.18;45.70;100572.06;5079240;28;46043;-50
2021/07/30 02:11:09;;;;;;;;;8.25;8.25;;;;;20.16;46.37;100571.28;5080463;27;45262;-52
2021/07/30 02:16:19;;;;;;;;;6.25;6.00;;;;;20.10;46.35;100563.63;5080405;28;45421;-51
2021/07/30 02:18:44;;;;;;;;;5.00;4.50;;;;;20.08;46.29;100562.88;5080406;28;46188;-50
2021/07/30 02:21:10;;;;;;;;;9.00;9.00;;;;;20.06;45.89;100559.41;5080081;28;45196;-49
2021/07/30 02:23:35;;;;;;;;;6.50;6.50;;;;;20.03;46.51;100557.78;5080602;28;45439;-51
2021/07/30 02:26:01;;;;;;;;;6.00;6.00;;;;;20.01;46.25;100558.81;5080368;28;45238;-49
2021/07/30 02:28:26;;;;;;;;;8.00;7.50;;;;;19.99;46.21;100561.56;5078682;28;48472;-50
2021/07/30 02:30:51;;;;;;;;;7.00;7.00;;;;;19.97;46.32;100568.78;5080236;28;45381;-49
2021/07/30 02:33:17;;;;;;;;;7.00;7.00;;;;;19.92;46.07;100563.75;5080089;28;45508;-53
2021/07/30 02:35:42;;;;;;;;;9.00;8.25;;;;;19.89;46.25;100561.22;5080335;27;45224;-50
2021/07/30 02:38:07;;;;;;;;;6.25;6.25;;;;;19.86;46.52;100550.75;5078969;28;46109;-52
2021/07/30 02:40:34;;;;;;;;;10.25;9.25;;;;;19.83;46.47;100555.38;5080006;27;45480;-50
2021/07/30 02:43:00;;;;;;;;;8.25;8.00;;;;;19.81;46.79;100550.97;5079931;28;45377;-51
2021/07/30 02:45:25;;;;;;;;;6.25;6.25;;;;;19.79;46.52;100554.66;5079945;28;45363;-52
2021/07/30 02:47:51;;;;;;;;;7.00;7.00;;;;;19.77;46.69;100552.09;5080106;28;45318;-51
2021/07/30 02:50:16;;;;;;;;;11.50;9.00;;;;;19.75;46.47;100543.31;5079949;27;45399;-53
2021/07/30 02:52:41;;;;;;;;;7.00;6.75;;;;;19.74;46.96;100551.41;5080260;28;45270;-52
2021/07/30 02:55:07;;;;;;;;;8.50;8.50;;;;;19.72;46.74;100548.81;5080094;28;45460;-52
2021/07/30 02:57:33;;;;;;;;;6.00;6.00;;;;;19.69;46.79;100551.66;5079832;28;45476;-50
2021/07/30 02:59:58;;;;;;;;;8.00;7.00;;;;;19.67;46.89;100542.88;5079402;28;46294;-51
2021/07/30 03:02:23;;;;;;;;;7.00;6.00;;;;;19.66;46.53;100541.16;5080104;28;45237;-49
2021/07/30 03:04:49;;;;;;;;;8.50;7.00;;;;;19.64;47.16;100537.72;5079805;28;45230;-51
2021/07/30 03:07:14;;;;;;;;;7.00;6.25;;;;;19.60;46.77;100529.03;5079867;28;45255;-53
2021/07/30 03:09:39;;;;;;;;;10.00;7.25;;;;;19.59;46.56;100534.44;5078546;28;45189;-52
2021/07/30 03:12:05;;;;;;;;;6.25;6.25;;;;;19.53;47.28;100524.97;5079880;28;45216;-52
2021/07/30 03:14:30;;;;;;;;;8.75;7.00;;;;;19.53;47.00;100524.13;5079570;28;45461;-52
2021/07/30 03:16:56;;;;;;;;;8.75;6.75;;;;;19.52;47.21;100519.72;5079681;28;45586;-51
2021/07/30 03:19:21;;;;;;;;;6.25;6.25;;;;;19.49;47.55;100521.63;5078030;27;45393;-52
2021/07/30 03:21:46;;;;;;;;;7.00;7.00;;;;;19.44;46.80;100513.00;5079760;27;45298;-48
2021/07/30 03:24:12;;;;;;;;;8.75;7.25;;;;;19.44;47.12;100515.69;5079685;28;45299;-52
2021/07/30 03:26:37;;;;;;;;;11.75;9.50;;;;;19.36;46.83;100503.72;5079450;28;45467;-53
2021/07/30 03:29:05;;;;;;;;;8.00;8.00;;;;;19.40;47.53;100515.94;5079158;28;45318;-53
2021/07/30 03:31:31;;;;;;;;;9.25;7.75;;;;;19.38;47.39;100509.84;5079663;28;45333;-51
2021/07/30 03:33:56;;;;;;;;;8.00;6.50;;;;;19.35;47.34;100516.19;5079304;28;45275;-51
2021/07/30 03:36:22;;;;;;;;;8.00;7.75;;;;;19.33;47.58;100518.94;5079376;28;46130;-51
2021/07/30 03:38:47;;;;;;;;;6.50;6.50;;;;;19.30;47.58;100526.25;5079403;28;45477;-51
2021/07/30 03:41:12;;;;;;;;;9.00;7.50;;;;;19.29;47.60;100516.53;5079608;27;45364;-50
2021/07/30 03:43:38;;;;;;;;;6.25;5.50;;;;;19.29;47.81;100524.50;5078953;28;45254;-50
2021/07/30 03:46:03;;;;;;;;;8.50;5.75;;;;;19.24;47.37;100515.91;5080979;28;46192;-52
2021/07/30 03:48:28;;;;;;;;;8.50;6.50;;;;;19.23;47.86;100512.41;5082562;28;45168;-52
2021/07/30 03:50:54;;;;;;;;;7.00;7.00;;;;;19.20;47.92;100515.22;5082919;27;45154;-53
2021/07/30 03:53:19;;;;;;;;;6.75;5.50;;;;;19.17;47.69;100516.25;5082841;28;45360;-51
2021/07/30 03:55:44;;;;;;;;;8.00;7.50;;;;;19.14;47.67;100516.44;5082684;28;46594;-50
2021/07/30 03:58:10;;;;;;;;;6.75;5.75;;;;;19.13;48.12;100520.03;5082258;28;45254;-52
2021/07/30 04:00:37;;;;;;;;;7.00;7.00;;;;;19.11;48.27;100529.88;5082849;27;45466;-50
2021/07/30 04:03:03;;;;;;;;;9.00;8.50;;;;;19.05;48.64;100527.56;5082468;28;45547;-52
2021/07/30 04:05:28;;;;;;;;;10.75;9.50;;;;;19.03;48.52;100521.47;5082460;28;45314;-48
2021/07/30 04:07:54;;;;;;;;;11.00;8.50;;;;;19.01;48.07;100518.00;5082342;28;45322;-53
2021/07/30 04:10:19;;;;;;;;;7.00;7.00;;;;;18.95;48.12;100505.88;5082781;27;45404;-52
2021/07/30 04:12:44;;;;;;;;;10.50;8.25;;;;;18.94;48.52;100513.94;5081047;28;45461;-51
2021/07/30 04:15:10;;;;;;;;;8.50;7.00;;;;;18.91;48.35;100509.66;5080832;28;46929;-53
2021/07/30 04:17:35;;;;;;;;;9.00;9.00;;;;;18.91;48.21;100517.63;5082251;28;45311;-50
2021/07/30 04:20:00;;;;;;;;;8.00;7.00;;;;;18.86;48.50;100511.66;5082256;27;45294;-53
2021/07/30 04:22:26;;;;;;;;;11.50;8.25;;;;;18.87;48.65;100518.72;5082060;28;45256;-52
2021/07/30 04:24:52;;;;;;;;;9.00;8.50;;;;;18.82;48.40;100518.94;5082078;28;46164;-51
2021/07/30 04:27:17;;;;;;;;;12.00;11.00;;;;;18.82;48.59;100523.41;5080639;28;45284;-52
2021/07/30 04:29:42;;;;;;;;;8.50;7.75;;;;;18.79;48.81;100511.13;5082118;27;45515;-51
2021/07/30 04:32:10;;;;;;;;;8.00;8.00;;;;;18.80;48.67;100519.97;5082165;28;45246;-52
2021/07/30 04:34:36;;;;;;;;;8.75;6.00;;;;;18.78;48.99;100524.50;5081933;28;46286;-53
2021/07/30 04:37:02;;;;;;;;;7.75;7.75;;;;;18.77;48.70;100515.66;5081908;28;45355;-50
2021/07/30 04:39:27;;;;;;;;;8.00;8.00;;;;;18.73;48.92;100516.78;5082255;27;45332;-51
2021/07/30 04:41:53;;;;;;;;;15.00;12.00;;;;;18.71;48.93;100520.44;5081560;27;45272;-51
2021/07/30 04:44:19;;;;;;;;;8.50;8.50;;;;;18.72;48.83;100522.19;5081887;28;45391;-51
2021/07/30 04:46:44;;;;;;;;;10.00;9.00;;;;;18.68;49.22;100521.47;5081806;28;45373;-51
2021/07/30 04:49:09;;;;;;;;;8.00;7.00;;;;;18.66;48.79;100520.69;5080734;28;45251;-53
2021/07/30 04:51:35;;;;;;;;;9.75;8.50;;;;;18.64;49.04;100531.41;5081730;28;45326;-53
2021/07/30 04:54:00;;;;;;;;;8.25;7.00;;;;;18.62;49.30;100527.13;5080358;28;47051;-52
2021/07/30 04:56:25;;;;;;;;;8.75;7.00;;;;;18.60;49.27;100526.31;5081649;28;45309;-53
2021/07/30 04:58:51;;;;;;;;;9.25;9.00;;;;;18.58;49.17;100529.06;5081450;28;45257;-50
2021/07/30 05:01:16;;;;;;;;;8.50;7.75;;;;;18.56;49.40;100527.41;5080223;27;45339;-51
2021/07/30 05:03:42;;;;;;;;;11.25;8.75;;;;;18.46;49.22;100509.25;5081405;28;46452;-53
2021/07/30 05:06:18;;;;;;;;;9.25;7.00;;;;;18.57;49.32;100523.81;5081635;28;45258;-53
2021/07/30 05:08:44;;;;;;;;;12.25;12.00;;;;;18.56;49.55;100530.09;5081630;28;45301;-51
2021/07/30 05:11:12;;;;;;;;;8.25;7.50;;;;;18.52;49.50;100527.56;5081314;27;45256;-54
2021/07/30 05:13:42;;;;;;;;;8.75;8.50;;;;;18.50;49.58;100526.78;5081109;28;46206;-52
2021/07/30 05:16:12;;;;;;;;;8.25;7.25;;;;;18.52;49.30;100524.91;5081177;28;45325;-50
2021/07/30 05:18:37;;;;;;;;;8.25;8.25;;;;;18.48;49.70;100518.03;5081567;28;45219;-49
2021/07/30 05:21:08;;;;;;;;;11.00;8.00;;;;;18.50;49.63;100524.13;5080907;28;45543;-49
2021/07/30 05:23:34;;;;;;;;;8.00;6.50;;;;;18.48;49.78;100523.34;5081124;28;46265;-53
2021/07/30 05:26:00;;;;;;;;;10.50;8.75;;;;;18.46;49.64;100519.03;5081044;28;45171;-52
2021/07/30 05:28:26;;;;;;;;;9.75;8.25;;;;;18.47;49.71;100526.09;5080961;28;45303;-52
2021/07/30 05:30:51;;;;;;;;;8.50;7.75;;;;;18.46;49.59;100519.88;5080828;27;45355;-52
2021/07/30 05:33:17;;;;;;;;;8.00;8.00;;;;;18.46;49.59;100524.34;5081105;28;47008;-53
2021/07/30 05:35:43;;;;;;;;;7.00;7.00;;;;;18.41;49.77;100526.41;5079665;28;45270;-52
2021/07/30 05:38:08;;;;;;;;;11.50;8.75;;;;;18.43;49.88;100530.69;5081258;28;45409;-52
2021/07/30 05:40:33;;;;;;;;;11.75;8.50;;;;;18.40;50.10;100512.25;5080875;27;45592;-53
2021/07/30 05:42:59;;;;;;;;;9.50;8.25;;;;;18.33;50.10;100506.34;5079316;28;48062;-52
2021/07/30 05:45:24;;;;;;;;;11.00;10.25;;;;;18.39;49.96;100515.84;5080831;28;45405;-52
2021/07/30 05:47:49;;;;;;;;;8.75;8.75;;;;;18.36;49.91;100513.31;5081369;28;45274;-52
2021/07/30 05:50:16;;;;;;;;;8.75;7.50;;;;;18.42;49.91;100520.13;5079350;27;45262;-52
2021/07/30 05:52:41;;;;;;;;;6.50;6.00;;;;;18.40;50.24;100504.25;5080828;27;47170;-53
2021/07/30 05:55:07;;;;;;;;;8.50;7.75;;;;;18.39;49.84;100515.84;5080667;28;45335;-53
2021/07/30 05:57:33;;;;;;;;;8.25;8.25;;;;;18.41;49.83;100505.97;5080970;28;45308;-53
2021/07/30 06:00:06;;;;;;;;;9.50;8.00;;;;;18.40;50.08;100520.22;5080204;28;45177;-51
2021/07/30 06:02:31;;;;;;;;;11.25;9.00;;;;;18.43;49.84;100508.56;5080497;28;47083;-52
2021/07/30 06:04:56;;;;;;;;;9.25;9.25;;;;;18.43;50.01;100511.22;5080358;28;45307;-54
2021/07/30 06:07:22;;;;;;;;;7.75;7.75;;;;;18.42;49.95;100515.66;5079098;28;45268;-53
2021/07/30 06:09:47;;;;;;;;;10.50;7.50;;;;;18.42;50.29;100515.66;5080404;28;45287;-53
2021/07/30 06:12:12;;;;;;;;;10.00;6.75;;;;;18.44;50.23;100513.81;5080554;28;45382;-52
2021/07/30 06:14:38;;;;;;;;;10.50;10.00;;;;;18.45;50.23;100518.19;5080329;28;45307;-53
2021/07/30 06:17:03;;;;;;;;;10.75;9.75;;;;;18.46;50.30;100514.56;5080684;28;45352;-53
2021/07/30 06:19:29;;;;;;;;;8.25;7.50;;;;;18.46;50.53;100519.88;5080113;28;45220;-53
2021/07/30 06:21:54;;;;;;;;;9.50;9.50;;;;;18.48;50.30;100503.88;5080275;27;46083;-52
2021/07/30 06:24:19;;;;;;;;;8.00;7.00;;;;;18.51;50.56;100504.56;5080528;28;45382;-53
2021/07/30 06:26:45;;;;;;;;;5.75;5.75;;;;;18.51;50.63;100507.25;5080477;28;45352;-53
2021/07/30 06:29:10;;;;;;;;;10.00;6.50;;;;;18.51;50.60;100509.91;5080125;28;45244;-52
2021/07/30 06:31:35;;;;;;;;;10.00;9.50;;;;;18.51;50.57;100493.94;5080240;27;46200;-53
2021/07/30 06:34:01;;;;;;;;;8.75;7.75;;;;;18.52;51.13;100506.28;5078902;28;45269;-52
2021/07/30 06:36:26;;;;;;;;;6.75;5.50;;;;;18.51;50.92;100507.25;5079231;28;45425;-52
2021/07/30 06:38:51;;;;;;;;;6.25;5.25;;;;;18.48;50.86;100490.56;5080223;28;45223;-51
2021/07/30 06:41:17;;;;;;;;;8.50;7.75;;;;;18.61;50.58;100496.13;5080088;28;45261;-52
2021/07/30 06:43:43;;;;;;;;;10.00;7.50;;;;;18.58;50.77;100497.13;5079545;28;45257;-50
2021/07/30 06:46:08;;;;;;;;;7.00;7.00;;;;;18.62;50.79;100496.03;5080316;28;45572;-52
2021/07/30 06:48:34;;;;;;;;;7.25;6.00;;;;;18.64;50.75;100490.63;5080030;28;45315;-52
2021/07/30 06:50:59;;;;;;;;;8.25;7.00;;;;;18.67;51.10;100498.47;5079958;27;45432;-49
2021/07/30 06:53:24;;;;;;;;;6.00;5.50;;;;;18.64;50.80;100499.47;5080015;28;45402;-51
2021/07/30 06:55:50;;;;;;;;;9.00;6.25;;;;;18.71;50.94;100489.38;5080071;28;45475;-52
2021/07/30 06:58:15;;;;;;;;;8.50;7.50;;;;;18.65;50.97;100490.56;5079573;28;45358;-52
2021/07/30 07:00:40;;;;;;;;;5.00;5.00;;;;;18.76;51.20;100489.13;5080015;27;46192;-53
2021/07/30 07:03:06;;;;;;;;;7.00;7.00;;;;;18.72;51.15;100487.59;5078504;28;45299;-53
2021/07/30 07:05:33;;;;;;;;;6.50;5.00;;;;;18.74;51.43;100494.53;5080350;28;45410;-52
2021/07/30 07:07:58;;;;;;;;;7.50;6.00;;;;;18.76;51.20;100489.97;5079792;28;45325;-53
2021/07/30 07:10:23;;;;;;;;;7.75;7.25;;;;;18.79;51.60;100496.94;5079742;28;45258;-53
2021/07/30 07:12:49;;;;;;;;;5.75;5.75;;;;;18.85;51.55;100504.59;5079277;28;45145;-53
2021/07/30 07:15:14;;;;;;;;;7.25;6.50;;;;;18.89;51.31;100487.53;5079826;28;45279;-53
2021/07/30 07:17:39;;;;;;;;;7.00;7.00;;;;;18.92;51.58;100492.72;5079667;28;45532;-53
2021/07/30 07:20:05;;;;;;;;;7.00;5.50;;;;;18.97;51.51;100493.34;5081321;27;45226;-54
2021/07/30 07:22:31;;;;;;;;;6.00;6.00;;;;;19.02;51.28;100494.91;5083003;28;45232;-54
2021/07/30 07:24:57;;;;;;;;;6.50;6.50;;;;;19.04;51.66;100491.22;5081934;28;45347;-54
2021/07/30 07:27:22;;;;;;;;;6.50;6.00;;;;;19.08;51.49;100487.47;5082988;28;45483;-53
2021/07/30 07:29:48;;;;;;;;;8.25;7.25;;;;;19.16;51.20;100487.88;5082870;27;45495;-52
2021/07/30 07:32:13;;;;;;;;;4.25;4.25;;;;;19.15;51.44;100480.84;5083096;28;45373;-52
2021/07/30 07:34:38;;;;;;;;;6.75;6.25;;;;;19.25;51.30;100481.19;5081719;28;45307;-52
2021/07/30 07:37:04;;;;;;;;;8.50;7.75;;;;;19.23;51.50;100485.78;5082952;28;45445;-52
2021/07/30 07:39:30;;;;;;;;;6.00;6.00;;;;;19.27;51.67;100491.75;5082983;28;46256;-54
2021/07/30 07:41:57;;;;;;;;;10.00;7.75;;;;;19.28;52.04;100475.72;5082590;27;45269;-52
2021/07/30 07:44:22;;;;;;;;;8.25;6.00;;;;;19.35;51.87;100481.56;5082830;28;45339;-52
2021/07/30 07:46:48;;;;;;;;;7.50;6.50;;;;;19.40;51.21;100478.66;5082627;28;45322;-52
2021/07/30 07:49:14;;;;;;;;;8.25;6.25;;;;;19.47;51.90;100472.91;5082751;28;46940;-52
2021/07/30 07:51:40;;;;;;;;;7.75;4.00;;;;;19.52;51.91;100479.75;5082631;28;45223;-54
2021/07/30 07:54:05;;;;;;;;;6.75;6.75;;;;;19.52;52.00;100475.31;5082935;28;45434;-53
2021/07/30 07:56:31;;;;;;;;;8.50;6.00;;;;;19.58;51.94;100474.09;5082870;28;45421;-52
2021/07/30 07:58:56;;;;;;;;;5.00;5.00;;;;;19.62;51.79;100467.63;5082355;28;45224;-52
2021/07/30 08:01:22;;;;;;;;;8.75;8.25;;;;;19.63;52.09;100474.69;5081007;28;45328;-52
2021/07/30 08:03:47;;;;;;;;;6.00;5.00;;;;;19.73;51.60;100465.22;5082850;28;45293;-52
2021/07/30 08:06:22;;;;;;;;;8.00;6.25;;;;;19.84;51.78;100464.66;5082464;28;45169;-53
2021/07/30 08:08:49;;;;;;;;;7.75;6.00;;;;;19.92;51.56;100466.88;5082478;28;45238;-53
2021/07/30 08:11:14;;;;;;;;;5.50;5.50;;;;;19.93;51.78;100460.59;5082334;27;45320;-52
2021/07/30 08:13:40;;;;;;;;;4.50;4.50;;;;;20.01;51.85;100465.47;5082345;28;45430;-54
2021/07/30 08:16:06;;;;;;;;;6.00;5.25;;;;;20.08;52.26;100457.03;5081007;28;45392;-54
2021/07/30 08:18:32;;;;;;;;;6.00;4.50;;;;;20.16;51.92;100459.25;5082415;28;46030;-52
2021/07/30 08:20:59;;;;;;;;;7.00;6.00;;;;;20.18;51.69;100449.34;5082144;27;45475;-53
2021/07/30 08:23:25;;;;;;;;;6.00;5.75;;;;;20.23;52.24;100446.41;5082273;28;45158;-52
2021/07/30 08:25:50;;;;;;;;;6.25;5.00;;;;;20.29;52.38;100451.38;5082144;28;45370;-52
2021/07/30 08:28:15;;;;;;;;;5.00;5.00;;;;;20.37;52.42;100443.78;5081973;28;45331;-54
2021/07/30 08:30:41;;;;;;;;;5.50;4.25;;;;;20.43;52.38;100471.91;5081632;28;45234;-52
2021/07/30 08:33:07;;;;;;;;;5.25;5.25;;;;;20.46;52.40;100450.34;5082251;28;45252;-55
2021/07/30 08:35:33;;;;;;;;;5.00;4.50;;;;;20.56;52.26;100456.84;5081968;27;45327;-54
2021/07/30 08:37:59;;;;;;;;;6.25;6.25;;;;;20.60;52.41;100460.19;5080753;28;47041;-54
2021/07/30 08:40:27;;;;;;;;;7.50;5.50;;;;;20.62;52.05;100451.16;5081656;27;45256;-53
2021/07/30 08:42:52;;;;;;;;;4.75;4.75;;;;;20.68;51.81;100457.06;5080478;28;45331;-53
2021/07/30 08:45:17;;;;;;;;;3.00;3.00;;;;;20.71;51.72;100449.75;5081780;28;45402;-53
2021/07/30 08:47:44;;;;;;;;;6.00;5.00;;;;;20.78;51.69;100448.44;5081881;28;45589;-54
2021/07/30 08:50:10;;;;;;;;;5.75;5.50;;;;;20.85;51.74;100456.06;5063563;28;45264;-51
2021/07/30 08:52:40;;;;;;;;;4.50;4.50;;;;;20.90;52.17;100459.31;5081959;28;45416;-54
2021/07/30 08:55:06;;;;;;;;;5.00;5.00;;;;;20.91;52.11;100456.53;5080428;28;45363;-54
2021/07/30 08:57:32;;;;;;;;;5.75;4.25;;;;;20.94;52.01;100455.47;5081209;28;46126;-53
2021/07/30 09:00:13;;;;;;;;;6.00;6.00;;;;;21.02;52.22;100465.69;5080302;27;45471;-49
2021/07/30 09:02:39;;;;;;;;;6.75;5.00;;;;;21.02;52.33;100461.22;5081546;28;45358;-50
2021/07/30 09:05:30;;;;;;;;;7.00;7.00;;;;;21.08;51.70;100460.84;5081305;28;45528;-53
2021/07/30 09:07:58;;;;;;;;;4.75;4.75;;;;;21.06;52.27;100451.22;5081273;27;46062;-52
2021/07/30 09:10:29;;;;;;;;;6.00;5.00;;;;;21.11;51.77;100455.28;5081451;28;45194;-51
2021/07/30 09:13:13;;;;;;;;;4.50;4.50;;;;;21.11;51.80;100449.09;5081132;28;45215;-52
2021/07/30 09:15:38;;;;;;;;;5.25;4.25;;;;;21.16;52.41;100451.50;5081467;27;45436;-50
2021/07/30 09:18:04;;;;;;;;;9.75;4.50;;;;;21.18;52.43;100457.56;5081147;28;45334;-52
2021/07/30 09:20:29;;;;;;;;;6.75;6.00;;;;;21.18;51.96;100461.13;5081193;27;45313;-53
2021/07/30 09:22:55;;;;;;;;;6.00;6.00;;;;;21.24;52.32;100449.19;5079859;28;45319;-52
2021/07/30 09:25:34;;;;;;;;;5.00;4.25;;;;;21.24;52.52;100438.50;5081289;28;45222;-50
2021/07/30 09:28:07;;;;;;;;;5.75;5.50;;;;;21.26;51.96;100437.44;5080987;28;46256;-52
2021/07/30 09:30:33;;;;;;;;;3.75;3.75;;;;;21.29;52.23;100444.38;5080983;28;45493;-51
2021/07/30 09:32:59;;;;;;;;;6.50;5.25;;;;;21.37;52.27;100451.91;5081260;28;45268;-51
2021/07/30 09:35:24;;;;;;;;;7.00;6.00;;;;;21.41;51.90;100458.78;5081061;27;45323;-53
2021/07/30 09:38:17;;;;;;;;;4.50;4.50;;;;;21.44;52.65;100445.22;5081083;28;46242;-53
2021/07/30 09:40:42;;;;;;;;;5.00;5.00;;;;;21.48;51.88;100454.75;5078933;27;45422;-53
2021/07/30 09:43:24;;;;;;;;;5.50;5.00;;;;;21.49;52.10;100452.97;5079926;28;45313;-54
2021/07/30 09:46:08;;;;;;;;;4.50;3.50;;;;;21.50;52.03;100460.88;5081214;28;45211;-51
2021/07/30 09:48:51;;;;;;;;;4.50;3.75;;;;;21.49;52.23;100463.66;5079176;28;47311;-52
2021/07/30 09:51:17;;;;;;;;;3.00;3.00;;;;;21.53;52.40;100447.28;5080868;28;45354;-53
2021/07/30 09:53:47;;;;;;;;;4.00;4.00;;;;;21.53;52.39;100446.44;5080742;28;45307;-52
2021/07/30 09:56:14;;;;;;;;;5.25;5.25;;;;;21.56;52.56;100440.94;5080759;28;45243;-53
2021/07/30 09:58:41;;;;;;;;;4.00;4.00;;;;;21.63;52.70;100446.75;5080190;28;46174;-51
2021/07/30 10:01:07;;;;;;;;;5.00;5.00;;;;;21.63;52.72;100446.75;5080778;28;45243;-54
2021/07/30 10:03:35;;;;;;;;;5.00;4.00;;;;;21.65;52.47;100435.00;5080421;28;45351;-50
2021/07/30 10:06:01;;;;;;;;;4.50;4.00;;;;;21.74;52.47;100436.19;5080777;28;45257;-51
2021/07/30 10:08:27;;;;;;;;;5.00;5.00;;;;;21.77;52.35;100419.94;5079106;28;46326;-50
2021/07/30 10:10:53;;;;;;;;;7.00;4.75;;;;;21.79;51.93;100446.59;5080707;28;45327;-53
2021/07/30 10:13:24;;;;;;;;;4.50;3.00;;;;;21.81;52.11;100452.69;5080203;28;45437;-51
2021/07/30 10:15:50;;;;;;;;;6.00;6.00;;;;;21.90;51.86;100433.38;5080636;28;45326;-53
2021/07/30 10:18:19;;;;;;;;;5.75;5.75;;;;;21.92;51.91;100437.66;5080079;28;46303;-54
2021/07/30 10:20:46;;;;;;;;;4.75;4.75;;;;;21.98;52.34;100443.56;5080392;27;45408;-53
2021/07/30 10:23:14;;;;;;;;;3.75;3.75;;;;;21.98;51.96;100425.69;5080380;28;45414;-54
2021/07/30 10:25:52;;;;;;;;;2.75;2.75;;;;;22.02;51.55;100429.84;5080475;28;45220;-53
2021/07/30 10:28:27;;;;;;;;;4.00;4.00;;;;;21.97;52.33;100433.81;5078540;28;47181;-52
2021/07/30 10:31:02;;;;;;;;;6.25;5.00;;;;;22.10;51.71;100428.47;5080034;28;45331;-53
2021/07/30 10:33:30;;;;;;;;;5.00;5.00;;;;;22.13;51.47;100421.09;5080325;28;45232;-53
2021/07/30 10:35:59;;;;;;;;;4.00;4.00;;;;;22.14;51.99;100435.31;5080166;28;45318;-54
2021/07/30 10:38:25;;;;;;;;;4.00;4.00;;;;;22.15;51.33;100426.34;5080173;28;45291;-53
2021/07/30 10:41:08;;;;;;;;;7.25;4.75;;;;;22.24;51.63;100415.88;5079944;28;46196;-53
2021/07/30 10:43:49;;;;;;;;;4.75;4.75;;;;;22.28;51.49;100408.50;5079998;28;45240;-53
2021/07/30 10:46:16;;;;;;;;;3.75;3.25;;;;;22.38;51.39;100409.59;5080060;28;45260;-52
2021/07/30 10:48:42;;;;;;;;;6.50;4.50;;;;;22.49;51.59;100410.69;5079779;28;46218;-52
2021/07/30 10:53:50;;;;;;;;;5.25;4.75;;;;;22.68;51.48;100416.47;5081268;27;45395;-53
2021/07/30 10:56:18;;;;;;;;;5.75;5.75;;;;;22.81;50.89;100404.91;5083572;28;45484;-51
2021/07/30 10:58:43;;;;;;;;;5.25;4.75;;;;;22.89;51.23;100411.41;5083063;28;46231;-53
2021/07/30 11:01:20;;;;;;;;;4.75;4.00;;;;;23.03;51.11;100404.19;5083540;27;45277;-53
2021/07/30 11:03:51;;;;;;;;;6.00;5.00;;;;;23.18;50.96;100439.78;5083737;28;45446;-51
2021/07/30 11:06:31;;;;;;;;;2.75;2.75;;;;;23.35;50.38;100442.09;5083327;28;45340;-53
2021/07/30 11:08:59;;;;;;;;;4.00;3.00;;;;;23.54;50.35;100408.59;5083454;28;45325;-53
2021/07/30 11:11:36;;;;;;;;;5.00;3.00;;;;;23.72;50.40;100410.88;5083267;27;45364;-54
2021/07/30 11:14:07;;;;;;;;;3.00;3.00;;;;;23.90;50.20;100438.13;5083157;28;45540;-53
2021/07/30 11:16:33;;;;;;;;;2.00;2.00;;;;;24.09;50.11;100417.03;5083289;28;45215;-53
2021/07/30 11:19:01;;;;;;;;;3.00;3.00;;;;;24.21;49.94;100391.06;5083144;28;46283;-52
2021/07/30 11:21:28;;;;;;;;;3.00;3.00;;;;;24.43;49.64;100395.63;5082988;28;45429;-53
2021/07/30 11:23:53;;;;;;;;;2.00;1.75;;;;;24.60;49.56;100405.06;5083220;27;45353;-52
2021/07/30 11:26:22;;;;;;;;;3.00;3.00;;;;;24.75;49.09;100411.03;5082960;27;45254;-52
2021/07/30 11:28:56;;;;;;;;;2.00;2.00;;;;;24.94;49.29;100431.97;5082863;28;45307;-53